Kliftrans — PCDB — position and weather

sailwx.info

Track history (hours):
 
Tides and Currents Weather Stations Pressure Air Temp Water Temp Dewpoint Dewpoint Depression Visibility Wind Speed Wind Dir Waves Ship Positions

Kliftrans

Last reported at 2014-Dec-18 07:33 UTC. Time now 2014-Dec-18 08:32 UTC.
Position N 58°42' W 003°03'.

Length 88 m; draft 3 m.

Type: Cargo ship. MMSI: 245132000.

Date/timePositionNaut miles runAvg speedWind from/ knotsBaromVisibWave heightAir tempDewpointWater temp
2014-Dec-18 07:33N 58°42' W 003°03'1313.2
2014-Dec-18 06:33N 58°42' W 003°28'1211.8
2014-Dec-18 05:33N 58°42' W 003°51'1211.7
2014-Dec-18 04:33N 58°41' W 004°14'1311.7
2014-Dec-18 03:28N 58°40' W 004°38'3310.5
2014-Dec-18 00:17N 58°21' W 005°30'810.7
2014-Dec-17 23:33N 58°15' W 005°39'1110.9
2014-Dec-17 22:33N 58°06' W 005°52'1210.8
2014-Dec-17 21:28N 57°57' W 006°06'181 7.4
2014-Dec-16 21:05N 54°56' W 005°42'712.5
2014-Dec-16 20:33N 54°50' W 005°40'10 9.7
2014-Dec-16 19:30N 54°41' W 005°49'6 6.0
2014-Dec-16 18:33N 54°37' W 005°55'0 0.0
2014-Dec-16 17:33N 54°37' W 005°55'0 0.0
2014-Dec-16 16:33N 54°37' W 005°55'0 0.0
2014-Dec-16 15:30N 54°37' W 005°55'0 0.0
2014-Dec-16 14:33N 54°37' W 005°55'0 0.0
2014-Dec-16 13:33N 54°37' W 005°55'0 0.0
2014-Dec-16 12:33N 54°37' W 005°55'0 0.0
2014-Dec-16 11:24N 54°37' W 005°55'0 0.0
2014-Dec-16 10:30N 54°37' W 005°55'0 0.0
2014-Dec-16 05:20N 54°37' W 005°55'0 0.0
2014-Dec-16 03:30N 54°37' W 005°55'0 0.0
2014-Dec-15 21:12N 54°37' W 005°55'0 0.0
2014-Dec-15 14:08N 54°37' W 005°55'0 0.0
2014-Dec-15 08:29N 54°37' W 005°55'0 0.0
2014-Dec-15 02:29N 54°37' W 005°55'0 0.0
2014-Dec-15 01:17N 54°37' W 005°55'0 0.0
2014-Dec-14 20:19N 54°37' W 005°55'0 0.0
2014-Dec-14 11:16N 54°37' W 005°55'0 0.0
2014-Dec-14 10:18N 54°37' W 005°55'0 0.0
2014-Dec-14 09:25N 54°37' W 005°55'0 0.0
2014-Dec-14 08:17N 54°37' W 005°55'0 0.0
2014-Dec-14 02:09N 54°37' W 005°55'0 0.0
2014-Dec-14 01:23N 54°37' W 005°55'0 0.0
2014-Dec-14 00:26N 54°37' W 005°55'0 0.0
2014-Dec-13 19:22N 54°37' W 005°55'0 0.0
2014-Dec-13 18:31N 54°37' W 005°55'0 0.0
2014-Dec-13 17:15N 54°37' W 005°55'2 3.0
2014-Dec-13 16:33N 54°38' W 005°53'8 7.8
2014-Dec-13 15:33N 54°43' W 005°42'4 3.5
2014-Dec-13 14:33N 54°43' W 005°36'6 6.1
2014-Dec-13 13:33N 54°39' W 005°27'9 8.9
2014-Dec-13 12:33N 54°31' W 005°22'9 9.4
2014-Dec-13 11:33N 54°22' W 005°20'194 7.4
2014-Dec-12 09:33N 51°22' W 003°22'8 7.5
2014-Dec-12 08:33N 51°24' W 003°10'4 2.9
2014-Dec-12 07:12N 51°27' W 003°10'0 0.0
2014-Dec-12 06:24N 51°27' W 003°10'0 0.0
2014-Dec-12 05:18N 51°27' W 003°10'0 0.0
2014-Dec-12 04:23N 51°27' W 003°10'0 0.0
2014-Dec-12 03:29N 51°27' W 003°10'0 0.0
2014-Dec-12 02:29N 51°27' W 003°10'0 0.0
2014-Dec-12 01:29N 51°27' W 003°10'0 0.0
2014-Dec-12 00:23N 51°27' W 003°10'0 0.0
2014-Dec-11 23:17N 51°27' W 003°10'0 0.0
2014-Dec-11 19:11N 51°27' W 003°10'0 0.0
2014-Dec-11 18:05N 51°27' W 003°10'0 0.0
2014-Dec-11 16:11N 51°27' W 003°10'0 0.0
2014-Dec-11 15:05N 51°27' W 003°10'0 0.0
2014-Dec-11 13:23N 51°27' W 003°10'0 0.0
2014-Dec-11 09:11N 51°27' W 003°10'0 0.0
2014-Dec-11 06:29N 51°27' W 003°10'0 0.0
2014-Dec-11 05:29N 51°27' W 003°10'0 0.0
2014-Dec-11 04:23N 51°27' W 003°10'0 0.0
2014-Dec-11 03:29N 51°27' W 003°10'0 0.0
2014-Dec-11 02:23N 51°27' W 003°10'0 0.0
2014-Dec-11 01:23N 51°27' W 003°10'0 0.0
2014-Dec-11 00:23N 51°27' W 003°10'0 0.0
2014-Dec-10 23:29N 51°27' W 003°10'0 0.0
2014-Dec-10 22:28N 51°27' W 003°10'0 0.0
2014-Dec-10 19:10N 51°27' W 003°10'0 0.0
2014-Dec-10 16:16N 51°27' W 003°10'0 0.0
2014-Dec-10 15:28N 51°27' W 003°10'5 0.3
2014-Dec-09 23:33N 51°25' W 003°03'1313.0
2014-Dec-09 22:33N 51°31' W 002°45'1110.7
2014-Dec-09 21:33N 51°40' W 002°35'5 5.1
2014-Dec-09 20:33N 51°43' W 002°29'0 0.0
2014-Dec-09 19:33N 51°43' W 002°29'0 0.3
2014-Dec-09 18:29N 51°43' W 002°28'0 0.0
2014-Dec-09 17:32N 51°43' W 002°28'0 0.0
2014-Dec-09 16:32N 51°43' W 002°28'0 0.0
2014-Dec-09 15:32N 51°43' W 002°28'0 0.0
2014-Dec-09 14:32N 51°43' W 002°28'0 0.0
2014-Dec-09 13:29N 51°43' W 002°28'0 0.0
2014-Dec-09 12:32N 51°43' W 002°28'0 0.0
2014-Dec-09 11:26N 51°43' W 002°28'0 0.0
2014-Dec-09 10:29N 51°43' W 002°28'0 0.0
2014-Dec-09 09:32N 51°43' W 002°28'0 0.0
2014-Dec-09 08:32N 51°43' W 002°28'0 0.0
2014-Dec-09 07:32N 51°43' W 002°28'0 0.0
2014-Dec-09 06:32N 51°43' W 002°28'0 0.0
2014-Dec-09 05:32N 51°43' W 002°28'0 0.0
2014-Dec-09 04:32N 51°43' W 002°28'0 0.0
2014-Dec-09 03:32N 51°43' W 002°28'0 0.0
2014-Dec-09 02:32N 51°43' W 002°28'0 0.0
2014-Dec-09 01:26N 51°43' W 002°28'0 0.0
2014-Dec-09 00:32N 51°43' W 002°28'0 0.0
2014-Dec-08 23:29N 51°43' W 002°28'0 0.0
2014-Dec-08 22:33N 51°43' W 002°28'0 0.3
2014-Dec-08 21:33N 51°43' W 002°29'0 0.1
2014-Dec-08 20:33N 51°43' W 002°29'6 5.5
2014-Dec-08 19:30N 51°39' W 002°36'1010.9
2014-Dec-08 18:33N 51°30' W 002°44'1110.6
2014-Dec-08 17:33N 51°27' W 002°60'  
Track history (hours):
 
Tides and Currents Weather Stations Pressure Air Temp Water Temp Dewpoint Dewpoint Depression Visibility Wind Speed Wind Dir Waves Ship Positions

Kliftrans

Last reported at 2014-Dec-18 07:33 UTC. Time now 2014-Dec-18 08:32 UTC.
Position N 58°42' W 003°03'.

Length 88 m; draft 3 m.

Type: Cargo ship. MMSI: 245132000.

Date/timePositionNaut miles runAvg speedWind from/ knotsBaromVisibWave heightAir tempDewpointWater temp
2014-Dec-18 07:33N 58°42' W 003°03'1313.2
2014-Dec-18 06:33N 58°42' W 003°28'1211.8
2014-Dec-18 05:33N 58°42' W 003°51'1211.7
2014-Dec-18 04:33N 58°41' W 004°14'1311.7
2014-Dec-18 03:28N 58°40' W 004°38'3310.5
2014-Dec-18 00:17N 58°21' W 005°30'810.7
2014-Dec-17 23:33N 58°15' W 005°39'1110.9
2014-Dec-17 22:33N 58°06' W 005°52'1210.8
2014-Dec-17 21:28N 57°57' W 006°06'181 7.4
2014-Dec-16 21:05N 54°56' W 005°42'712.5
2014-Dec-16 20:33N 54°50' W 005°40'10 9.7
2014-Dec-16 19:30N 54°41' W 005°49'6 6.0
2014-Dec-16 18:33N 54°37' W 005°55'0 0.0
2014-Dec-16 17:33N 54°37' W 005°55'0 0.0
2014-Dec-16 16:33N 54°37' W 005°55'0 0.0
2014-Dec-16 15:30N 54°37' W 005°55'0 0.0
2014-Dec-16 14:33N 54°37' W 005°55'0 0.0
2014-Dec-16 13:33N 54°37' W 005°55'0 0.0
2014-Dec-16 12:33N 54°37' W 005°55'0 0.0
2014-Dec-16 11:24N 54°37' W 005°55'0 0.0
2014-Dec-16 10:30N 54°37' W 005°55'0 0.0
2014-Dec-16 05:20N 54°37' W 005°55'0 0.0
2014-Dec-16 03:30N 54°37' W 005°55'0 0.0
2014-Dec-15 21:12N 54°37' W 005°55'0 0.0
2014-Dec-15 14:08N 54°37' W 005°55'0 0.0
2014-Dec-15 08:29N 54°37' W 005°55'0 0.0
2014-Dec-15 02:29N 54°37' W 005°55'0 0.0
2014-Dec-15 01:17N 54°37' W 005°55'0 0.0
2014-Dec-14 20:19N 54°37' W 005°55'0 0.0
2014-Dec-14 11:16N 54°37' W 005°55'0 0.0
2014-Dec-14 10:18N 54°37' W 005°55'0 0.0
2014-Dec-14 09:25N 54°37' W 005°55'0 0.0
2014-Dec-14 08:17N 54°37' W 005°55'0 0.0
2014-Dec-14 02:09N 54°37' W 005°55'0 0.0
2014-Dec-14 01:23N 54°37' W 005°55'0 0.0
2014-Dec-14 00:26N 54°37' W 005°55'0 0.0
2014-Dec-13 19:22N 54°37' W 005°55'0 0.0
2014-Dec-13 18:31N 54°37' W 005°55'0 0.0
2014-Dec-13 17:15N 54°37' W 005°55'2 3.0
2014-Dec-13 16:33N 54°38' W 005°53'8 7.8
2014-Dec-13 15:33N 54°43' W 005°42'4 3.5
2014-Dec-13 14:33N 54°43' W 005°36'6 6.1
2014-Dec-13 13:33N 54°39' W 005°27'9 8.9
2014-Dec-13 12:33N 54°31' W 005°22'9 9.4
2014-Dec-13 11:33N 54°22' W 005°20'194 7.4
2014-Dec-12 09:33N 51°22' W 003°22'8 7.5
2014-Dec-12 08:33N 51°24' W 003°10'4 2.9
2014-Dec-12 07:12N 51°27' W 003°10'0 0.0
2014-Dec-12 06:24N 51°27' W 003°10'0 0.0
2014-Dec-12 05:18N 51°27' W 003°10'0 0.0
2014-Dec-12 04:23N 51°27' W 003°10'0 0.0
2014-Dec-12 03:29N 51°27' W 003°10'0 0.0
2014-Dec-12 02:29N 51°27' W 003°10'0 0.0
2014-Dec-12 01:29N 51°27' W 003°10'0 0.0
2014-Dec-12 00:23N 51°27' W 003°10'0 0.0
2014-Dec-11 23:17N 51°27' W 003°10'0 0.0
2014-Dec-11 19:11N 51°27' W 003°10'0 0.0
2014-Dec-11 18:05N 51°27' W 003°10'0 0.0
2014-Dec-11 16:11N 51°27' W 003°10'0 0.0
2014-Dec-11 15:05N 51°27' W 003°10'0 0.0
2014-Dec-11 13:23N 51°27' W 003°10'0 0.0
2014-Dec-11 09:11N 51°27' W 003°10'0 0.0
2014-Dec-11 06:29N 51°27' W 003°10'0 0.0
2014-Dec-11 05:29N 51°27' W 003°10'0 0.0
2014-Dec-11 04:23N 51°27' W 003°10'0 0.0
2014-Dec-11 03:29N 51°27' W 003°10'0 0.0
2014-Dec-11 02:23N 51°27' W 003°10'0 0.0
2014-Dec-11 01:23N 51°27' W 003°10'0 0.0
2014-Dec-11 00:23N 51°27' W 003°10'0 0.0
2014-Dec-10 23:29N 51°27' W 003°10'0 0.0
2014-Dec-10 22:28N 51°27' W 003°10'0 0.0
2014-Dec-10 19:10N 51°27' W 003°10'0 0.0
2014-Dec-10 16:16N 51°27' W 003°10'0 0.0
2014-Dec-10 15:28N 51°27' W 003°10'5 0.3
2014-Dec-09 23:33N 51°25' W 003°03'1313.0
2014-Dec-09 22:33N 51°31' W 002°45'1110.7
2014-Dec-09 21:33N 51°40' W 002°35'5 5.1
2014-Dec-09 20:33N 51°43' W 002°29'0 0.0
2014-Dec-09 19:33N 51°43' W 002°29'0 0.3
2014-Dec-09 18:29N 51°43' W 002°28'0 0.0
2014-Dec-09 17:32N 51°43' W 002°28'0 0.0
2014-Dec-09 16:32N 51°43' W 002°28'0 0.0
2014-Dec-09 15:32N 51°43' W 002°28'0 0.0
2014-Dec-09 14:32N 51°43' W 002°28'0 0.0
2014-Dec-09 13:29N 51°43' W 002°28'0 0.0
2014-Dec-09 12:32N 51°43' W 002°28'0 0.0
2014-Dec-09 11:26N 51°43' W 002°28'0 0.0
2014-Dec-09 10:29N 51°43' W 002°28'0 0.0
2014-Dec-09 09:32N 51°43' W 002°28'0 0.0
2014-Dec-09 08:32N 51°43' W 002°28'0 0.0
2014-Dec-09 07:32N 51°43' W 002°28'0 0.0
2014-Dec-09 06:32N 51°43' W 002°28'0 0.0
2014-Dec-09 05:32N 51°43' W 002°28'0 0.0
2014-Dec-09 04:32N 51°43' W 002°28'0 0.0
2014-Dec-09 03:32N 51°43' W 002°28'0 0.0
2014-Dec-09 02:32N 51°43' W 002°28'0 0.0
2014-Dec-09 01:26N 51°43' W 002°28'0 0.0
2014-Dec-09 00:32N 51°43' W 002°28'0 0.0
2014-Dec-08 23:29N 51°43' W 002°28'0 0.0
2014-Dec-08 22:33N 51°43' W 002°28'0 0.3
2014-Dec-08 21:33N 51°43' W 002°29'0 0.1
2014-Dec-08 20:33N 51°43' W 002°29'6 5.5
2014-Dec-08 19:30N 51°39' W 002°36'1010.9
2014-Dec-08 18:33N 51°30' W 002°44'1110.6
2014-Dec-08 17:33N 51°27' W 002°60'  

Dump ship's entire track history